aviador You're here:

KSDM Decoded Metar

SAN DIEGO/BROWN in CA, USA
Report Time2018-07-20 15:53:00
UTC Time2018-07-20 16:42:35
Flight Rules mvfr MVFR
WindCalm
Visibility9999 m
Phenomena:N/A
Clouds:Broken 011 Hf
Expected CloudBase > 1,600 ft AGL from Temp-Dew spread
Ceiling1,100 ft
Temp22°C (ISA +8)
Dew Point18°C (78% RH)
QNH1015 hPa
Density Alt1,667 ft
Elevation522 ft
Report Wrong Elevation
Raw Report
KSDM 201553Z COR 00000KT 10SM BKN011 22/18 A2997 RMK AO2 SLP145
T02170178=

Extra information for KSDM:More info

Metar Taf Metar & Taf Last 4 Metars F.Rules Stats Wind Profile Meteogram Temp Stats Airport Information Weather charts Add Link Nearby VenuesMetar ALERT Operation Metar Decoded Social comments

AIRNAV info for KSDM